createdAt,value
2018-04-29T00:01:02.059Z,254
2018-04-29T00:02:08.989Z,256
2018-04-29T00:03:15.914Z,256
2018-04-29T00:04:23.115Z,255
2018-04-29T00:05:30.052Z,253
2018-04-29T00:06:37.258Z,254
2018-04-29T00:07:44.459Z,254
2018-04-29T00:08:51.667Z,252
2018-04-29T00:09:58.867Z,254
2018-04-29T00:11:06.068Z,254
2018-04-29T00:12:12.999Z,260
2018-04-29T00:13:20.207Z,254
2018-04-29T00:14:27.133Z,254
2018-04-29T00:15:34.337Z,250
2018-04-29T00:16:41.555Z,251
2018-04-29T00:17:48.751Z,256
2018-04-29T00:18:55.955Z,257
2018-04-29T00:20:02.899Z,281
2018-04-29T00:21:10.101Z,273
2018-04-29T00:22:17.305Z,261
2018-04-29T00:23:24.508Z,258
2018-04-29T00:24:31.711Z,263
2018-04-29T00:25:38.916Z,263
2018-04-29T00:26:46.134Z,262
2018-04-29T00:27:53.327Z,323
2018-04-29T00:29:00.530Z,299
2018-04-29T00:30:07.459Z,297
2018-04-29T00:31:14.662Z,277
2018-04-29T00:32:21.864Z,284
2018-04-29T00:33:28.791Z,276
2018-04-29T00:34:35.998Z,271
2018-04-29T00:35:43.198Z,279
2018-04-29T00:36:50.407Z,284
2018-04-29T00:37:57.607Z,273
2018-04-29T00:39:04.814Z,278
2018-04-29T00:40:11.744Z,277
2018-04-29T00:41:18.953Z,271
2018-04-29T00:42:26.153Z,273
2018-04-29T00:43:33.351Z,275
2018-04-29T00:44:40.563Z,270
2018-04-29T00:45:47.768Z,269
2018-04-29T00:46:54.971Z,262
2018-04-29T00:48:02.174Z,263
2018-04-29T00:49:09.441Z,270
2018-04-29T00:50:16.641Z,267
2018-04-29T00:51:23.857Z,264
2018-04-29T00:52:30.785Z,258
2018-04-29T00:53:37.193Z,259
2018-04-29T00:54:44.124Z,264
2018-04-29T00:55:51.335Z,259
2018-04-29T00:56:58.534Z,260
2018-04-29T00:58:05.737Z,258
2018-04-29T00:59:12.944Z,258
2018-04-29T01:00:20.152Z,263
2018-04-29T01:01:27.351Z,257
2018-04-29T01:02:34.565Z,261
2018-04-29T01:03:41.768Z,258
2018-04-29T01:04:48.971Z,258
2018-04-29T01:05:56.328Z,257
2018-04-29T01:07:03.263Z,256
2018-04-29T01:08:10.463Z,261
2018-04-29T01:09:17.687Z,259
2018-04-29T01:10:24.892Z,262
2018-04-29T01:11:32.094Z,252
2018-04-29T01:12:39.292Z,250
2018-04-29T01:13:46.561Z,248
2018-04-29T01:14:53.759Z,250
2018-04-29T01:16:00.963Z,248
2018-04-29T01:17:08.164Z,248
2018-04-29T01:18:15.368Z,252
2018-04-29T01:19:22.570Z,248
2018-04-29T01:20:29.777Z,246
2018-04-29T01:21:36.981Z,247
2018-04-29T01:22:44.179Z,247
2018-04-29T01:23:51.380Z,248
2018-04-29T01:24:58.583Z,248
2018-04-29T01:26:05.513Z,248
2018-04-29T01:27:12.716Z,243
2018-04-29T01:28:19.642Z,243
2018-04-29T01:29:26.841Z,245
2018-04-29T01:30:34.042Z,251
2018-04-29T01:31:40.982Z,245
2018-04-29T01:32:48.182Z,246
2018-04-29T01:33:55.393Z,245
2018-04-29T01:35:02.597Z,243
2018-04-29T01:36:09.526Z,245
2018-04-29T01:37:16.773Z,244
2018-04-29T01:38:23.981Z,243
2018-04-29T01:39:31.187Z,240
2018-04-29T01:40:38.389Z,244
2018-04-29T01:41:45.591Z,243
2018-04-29T01:42:52.793Z,244
2018-04-29T01:44:00.003Z,243
2018-04-29T01:45:06.938Z,242
2018-04-29T01:46:14.144Z,249
2018-04-29T01:47:21.345Z,236
2018-04-29T01:48:28.551Z,240
2018-04-29T01:49:35.482Z,239
2018-04-29T01:50:42.897Z,239
2018-04-29T01:51:50.100Z,245
2018-04-29T01:52:57.304Z,250
2018-04-29T01:54:04.507Z,250
2018-04-29T01:55:11.434Z,241
2018-04-29T01:56:18.637Z,244
2018-04-29T01:57:25.840Z,244
2018-04-29T01:58:33.042Z,242
2018-04-29T01:59:40.249Z,246
2018-04-29T02:00:47.449Z,246
2018-04-29T02:01:54.373Z,244
2018-04-29T02:03:01.574Z,245
2018-04-29T02:04:08.778Z,240
2018-04-29T02:05:15.983Z,250
2018-04-29T02:06:23.189Z,243
2018-04-29T02:07:30.386Z,235
2018-04-29T02:08:37.594Z,239
2018-04-29T02:09:44.519Z,240
2018-04-29T02:10:51.721Z,242
2018-04-29T02:11:58.923Z,240
2018-04-29T02:13:06.128Z,241
2018-04-29T02:14:13.345Z,238
2018-04-29T02:15:20.548Z,239
2018-04-29T02:16:27.753Z,240
2018-04-29T02:17:34.958Z,239
2018-04-29T02:18:42.163Z,243
2018-04-29T02:19:49.372Z,235
2018-04-29T02:20:56.571Z,241
2018-04-29T02:22:03.769Z,237
2018-04-29T02:23:10.975Z,240
2018-04-29T02:24:18.176Z,240
2018-04-29T02:25:25.108Z,242
2018-04-29T02:26:32.306Z,240
2018-04-29T02:27:39.511Z,252
2018-04-29T02:28:46.723Z,245
2018-04-29T02:29:53.924Z,242
2018-04-29T02:31:00.849Z,241
2018-04-29T02:32:07.780Z,239
2018-04-29T02:33:14.984Z,240
2018-04-29T02:34:22.192Z,242
2018-04-29T02:35:29.405Z,239
2018-04-29T02:36:36.596Z,238
2018-04-29T02:37:43.803Z,236
2018-04-29T02:38:51.006Z,237
2018-04-29T02:39:57.938Z,239
2018-04-29T02:41:05.146Z,238
2018-04-29T02:42:12.345Z,238
2018-04-29T02:43:19.546Z,238
2018-04-29T02:44:26.751Z,238
2018-04-29T02:45:33.957Z,238
2018-04-29T02:46:40.883Z,237
2018-04-29T02:47:48.080Z,237
2018-04-29T02:48:55.279Z,236
2018-04-29T02:50:02.483Z,236
2018-04-29T02:51:09.686Z,236
2018-04-29T02:52:16.887Z,236
2018-04-29T02:53:24.086Z,235
2018-04-29T02:54:31.301Z,235
2018-04-29T02:55:38.499Z,235
2018-04-29T02:56:45.698Z,235
2018-04-29T02:57:52.900Z,235
2018-04-29T02:59:00.101Z,235
2018-04-29T03:00:07.301Z,234
2018-04-29T03:01:14.596Z,235
2018-04-29T03:02:21.795Z,234
2018-04-29T03:03:28.717Z,235
2018-04-29T03:04:35.926Z,234
2018-04-29T03:05:42.855Z,235
2018-04-29T03:06:50.058Z,235
2018-04-29T03:07:56.992Z,234
2018-04-29T03:09:04.191Z,235
2018-04-29T03:10:11.391Z,234
2018-04-29T03:11:18.672Z,234
2018-04-29T03:12:25.878Z,234
2018-04-29T03:13:32.806Z,234
2018-04-29T03:14:40.008Z,235
2018-04-29T03:15:47.234Z,234
2018-04-29T03:16:54.438Z,235
2018-04-29T03:18:01.643Z,234
2018-04-29T03:19:08.851Z,235
2018-04-29T03:20:15.772Z,235
2018-04-29T03:21:22.979Z,235
2018-04-29T03:22:29.902Z,234
2018-04-29T03:23:37.107Z,235
2018-04-29T03:24:44.308Z,235
2018-04-29T03:25:51.298Z,235
2018-04-29T03:26:58.510Z,235
2018-04-29T03:28:05.719Z,235
2018-04-29T03:29:12.920Z,235
2018-04-29T03:30:20.123Z,236
2018-04-29T03:31:27.325Z,235
2018-04-29T03:32:34.537Z,236
2018-04-29T03:33:41.747Z,236
2018-04-29T03:34:48.948Z,236
2018-04-29T03:35:56.148Z,236
2018-04-29T03:37:03.352Z,236
2018-04-29T03:38:10.558Z,236
2018-04-29T03:39:17.767Z,236
2018-04-29T03:40:24.968Z,236
2018-04-29T03:41:32.176Z,236
2018-04-29T03:42:39.375Z,236
2018-04-29T03:43:46.589Z,236
2018-04-29T03:44:53.796Z,236
2018-04-29T03:46:00.997Z,236
2018-04-29T03:47:08.199Z,236
2018-04-29T03:48:15.420Z,236
2018-04-29T03:49:22.624Z,236
2018-04-29T03:50:29.826Z,238
2018-04-29T03:51:37.033Z,238
2018-04-29T03:52:44.228Z,237
2018-04-29T03:53:51.435Z,237
2018-04-29T03:54:58.633Z,237
2018-04-29T03:56:05.880Z,238
2018-04-29T03:57:13.115Z,237
2018-04-29T03:58:20.040Z,237
2018-04-29T03:59:26.965Z,237
2018-04-29T04:00:34.173Z,237
2018-04-29T04:01:52.049Z,236
2018-04-29T04:02:59.252Z,236
2018-04-29T04:04:06.456Z,236
2018-04-29T04:05:13.664Z,236
2018-04-29T04:06:20.870Z,236
2018-04-29T04:07:28.068Z,236
2018-04-29T04:08:35.266Z,236
2018-04-29T04:09:42.562Z,235
2018-04-29T04:10:49.797Z,235
2018-04-29T04:11:57.007Z,235
2018-04-29T04:13:04.212Z,236
2018-04-29T04:14:11.424Z,235
2018-04-29T04:15:18.350Z,235
2018-04-29T04:16:25.620Z,235
2018-04-29T04:17:32.546Z,235
2018-04-29T04:18:39.748Z,235
2018-04-29T04:19:46.947Z,235
2018-04-29T04:20:54.157Z,235
2018-04-29T04:22:01.359Z,235
2018-04-29T04:23:08.584Z,234
2018-04-29T04:24:15.787Z,235
2018-04-29T04:25:22.987Z,235
2018-04-29T04:26:30.200Z,235
2018-04-29T04:27:37.405Z,235
2018-04-29T04:28:44.627Z,235
2018-04-29T04:29:51.834Z,235
2018-04-29T04:30:59.042Z,234
2018-04-29T04:32:06.244Z,235
2018-04-29T04:33:13.463Z,234
2018-04-29T04:34:20.399Z,234
2018-04-29T04:35:27.599Z,234
2018-04-29T04:36:34.806Z,234
2018-04-29T04:37:42.016Z,234
2018-04-29T04:38:49.219Z,234
2018-04-29T04:39:56.425Z,234
2018-04-29T04:41:03.349Z,234
2018-04-29T04:42:10.549Z,233
2018-04-29T04:43:17.750Z,234
2018-04-29T04:44:24.993Z,234
2018-04-29T04:45:31.925Z,234
2018-04-29T04:46:38.844Z,233
2018-04-29T04:47:46.049Z,233
2018-04-29T04:48:53.403Z,233
2018-04-29T04:50:00.608Z,232
2018-04-29T04:51:07.816Z,232
2018-04-29T04:52:15.034Z,233
2018-04-29T04:53:21.982Z,233
2018-04-29T04:54:29.186Z,232
2018-04-29T04:55:36.453Z,232
2018-04-29T04:56:43.661Z,231
2018-04-29T04:57:50.590Z,231
2018-04-29T04:58:57.518Z,231
2018-04-29T05:00:04.718Z,231
2018-04-29T05:01:11.928Z,231
2018-04-29T05:02:19.128Z,230
2018-04-29T05:03:26.331Z,230
2018-04-29T05:04:33.532Z,230
2018-04-29T05:05:40.735Z,230
2018-04-29T05:06:47.641Z,229
2018-04-29T05:07:54.303Z,229
2018-04-29T05:09:01.236Z,230
2018-04-29T05:10:08.455Z,229
2018-04-29T05:11:15.736Z,229
2018-04-29T05:12:22.929Z,229
2018-04-29T05:13:30.133Z,229
2018-04-29T05:14:37.066Z,228
2018-04-29T05:15:44.275Z,228
2018-04-29T05:16:51.473Z,229
2018-04-29T05:17:58.677Z,228
2018-04-29T05:19:05.876Z,228
2018-04-29T05:20:12.797Z,228
2018-04-29T05:21:20.004Z,228
2018-04-29T05:22:26.936Z,227
2018-04-29T05:23:34.147Z,227
2018-04-29T05:24:41.359Z,227
2018-04-29T05:25:48.290Z,227
2018-04-29T05:26:55.495Z,227
2018-04-29T05:28:02.700Z,227
2018-04-29T05:29:09.906Z,227
2018-04-29T05:30:17.170Z,227
2018-04-29T05:31:24.385Z,227
2018-04-29T05:32:31.314Z,227
2018-04-29T05:33:38.518Z,227
2018-04-29T05:34:45.727Z,226
2018-04-29T05:35:52.656Z,226
2018-04-29T05:36:59.857Z,227
2018-04-29T05:38:07.063Z,227
2018-04-29T05:39:14.265Z,227
2018-04-29T05:40:21.476Z,227
2018-04-29T05:41:28.679Z,227
2018-04-29T05:42:35.880Z,226
2018-04-29T05:43:43.081Z,227
2018-04-29T05:44:50.288Z,226
2018-04-29T05:45:57.495Z,226
2018-04-29T05:47:04.701Z,227
2018-04-29T05:48:11.904Z,226
2018-04-29T05:49:18.836Z,226
2018-04-29T05:50:26.041Z,226
2018-04-29T05:51:32.973Z,225
2018-04-29T05:52:40.180Z,226
2018-04-29T05:53:47.386Z,226
2018-04-29T05:54:54.311Z,226
2018-04-29T05:56:01.514Z,226
2018-04-29T05:57:08.711Z,226
2018-04-29T05:58:15.915Z,226
2018-04-29T05:59:23.117Z,227
2018-04-29T06:00:30.625Z,227
2018-04-29T06:01:37.771Z,227
2018-04-29T06:02:44.959Z,227
2018-04-29T06:03:52.165Z,227
2018-04-29T06:04:59.374Z,228
2018-04-29T06:06:06.583Z,228
2018-04-29T06:07:13.546Z,227
2018-04-29T06:08:20.751Z,228
2018-04-29T06:09:27.954Z,228
2018-04-29T06:10:35.158Z,228
2018-04-29T06:11:42.403Z,228
2018-04-29T06:12:49.606Z,228
2018-04-29T06:13:56.924Z,228
2018-04-29T06:15:04.200Z,228
2018-04-29T06:16:11.400Z,228
2018-04-29T06:17:18.332Z,228
2018-04-29T06:18:25.546Z,228
2018-04-29T06:19:32.479Z,228
2018-04-29T06:20:39.678Z,228
2018-04-29T06:21:46.888Z,228
2018-04-29T06:22:53.816Z,226
2018-04-29T06:24:01.015Z,226
2018-04-29T06:25:08.222Z,225
2018-04-29T06:26:15.933Z,225
2018-04-29T06:27:23.282Z,225
2018-04-29T06:28:30.214Z,225
2018-04-29T06:29:37.419Z,223
2018-04-29T06:30:44.620Z,221
2018-04-29T06:31:51.898Z,221
2018-04-29T06:32:59.194Z,221
2018-04-29T06:34:06.126Z,221
2018-04-29T06:35:13.328Z,220
2018-04-29T06:36:20.532Z,220
2018-04-29T06:37:27.743Z,219
2018-04-29T06:38:34.949Z,218
2018-04-29T06:39:41.883Z,218
2018-04-29T06:40:49.088Z,217
2018-04-29T06:41:56.021Z,218
2018-04-29T06:43:03.226Z,217
2018-04-29T06:44:10.428Z,217
2018-04-29T06:45:17.631Z,217
2018-04-29T06:46:24.293Z,218
2018-04-29T06:47:31.509Z,218
2018-04-29T06:48:38.706Z,219
2018-04-29T06:49:45.914Z,219
2018-04-29T06:50:52.847Z,219
2018-04-29T06:52:00.054Z,220
2018-04-29T06:53:07.262Z,221
2018-04-29T06:54:14.468Z,220
2018-04-29T06:55:21.401Z,220
2018-04-29T06:56:28.609Z,220
2018-04-29T06:57:35.817Z,221
2018-04-29T06:58:43.024Z,222
2018-04-29T06:59:50.229Z,222
2018-04-29T07:00:57.433Z,221
2018-04-29T07:02:04.637Z,221
2018-04-29T07:03:11.841Z,221
2018-04-29T07:04:19.053Z,221
2018-04-29T07:05:26.261Z,221
2018-04-29T07:06:33.470Z,221
2018-04-29T07:07:40.676Z,220
2018-04-29T07:08:47.880Z,219
2018-04-29T07:09:55.089Z,220
2018-04-29T07:11:02.293Z,222
2018-04-29T07:12:09.496Z,222
2018-04-29T07:13:16.708Z,221
2018-04-29T07:14:23.912Z,221
2018-04-29T07:15:31.116Z,222
2018-04-29T07:16:38.334Z,222
2018-04-29T07:17:45.269Z,223
2018-04-29T07:18:52.193Z,223
2018-04-29T07:19:59.492Z,223
2018-04-29T07:21:06.843Z,223
2018-04-29T07:22:14.048Z,222
2018-04-29T07:23:21.259Z,222
2018-04-29T07:24:28.186Z,221
2018-04-29T07:25:35.392Z,221
2018-04-29T07:26:42.606Z,220
2018-04-29T07:27:49.814Z,220
2018-04-29T07:28:57.029Z,219
2018-04-29T07:30:04.245Z,219
2018-04-29T07:31:11.179Z,219
2018-04-29T07:32:18.401Z,219
2018-04-29T07:33:25.340Z,219
2018-04-29T07:34:32.540Z,218
2018-04-29T07:35:39.741Z,219
2018-04-29T07:36:46.953Z,220
2018-04-29T07:37:54.159Z,220
2018-04-29T07:39:01.088Z,220
2018-04-29T07:40:08.467Z,220
2018-04-29T07:41:15.735Z,221
2018-04-29T07:42:22.944Z,220
2018-04-29T07:43:30.155Z,221
2018-04-29T07:44:37.363Z,222
2018-04-29T07:45:44.571Z,221
2018-04-29T07:46:51.780Z,221
2018-04-29T07:47:58.998Z,220
2018-04-29T07:49:06.204Z,220
2018-04-29T07:50:13.411Z,220
2018-04-29T07:51:20.623Z,220
2018-04-29T07:52:28.027Z,220
2018-04-29T07:53:35.379Z,221
2018-04-29T07:54:42.586Z,221
2018-04-29T07:55:49.798Z,220
2018-04-29T07:56:57.012Z,220
2018-04-29T07:58:04.213Z,220
2018-04-29T07:59:11.419Z,220
2018-04-29T08:00:18.634Z,220
2018-04-29T08:01:25.841Z,220
2018-04-29T08:02:33.049Z,220
2018-04-29T08:03:40.261Z,219
2018-04-29T08:04:47.473Z,219
2018-04-29T08:05:54.675Z,219
2018-04-29T08:07:01.609Z,220
2018-04-29T08:08:08.551Z,220
2018-04-29T08:09:15.484Z,220
2018-04-29T08:10:22.415Z,220
2018-04-29T08:11:29.621Z,220
2018-04-29T08:12:36.831Z,220
2018-04-29T08:13:43.787Z,219
2018-04-29T08:14:50.989Z,220
2018-04-29T08:15:57.928Z,219
2018-04-29T08:17:05.137Z,219
2018-04-29T08:18:12.415Z,222
2018-04-29T08:19:19.642Z,223
2018-04-29T08:20:26.834Z,221
2018-04-29T08:21:34.051Z,222
2018-04-29T08:22:41.437Z,222
2018-04-29T08:23:48.775Z,221
2018-04-29T08:24:55.981Z,222
2018-04-29T08:26:03.210Z,221
2018-04-29T08:27:10.426Z,223
2018-04-29T08:28:17.631Z,221
2018-04-29T08:29:24.570Z,220
2018-04-29T08:30:31.781Z,221
2018-04-29T08:31:38.992Z,221
2018-04-29T08:32:46.208Z,221
2018-04-29T08:33:53.417Z,222
2018-04-29T08:35:00.076Z,222
2018-04-29T08:36:07.450Z,220
2018-04-29T08:37:14.649Z,222
2018-04-29T08:38:21.867Z,221
2018-04-29T08:39:29.068Z,222
2018-04-29T08:40:36.287Z,222
2018-04-29T08:41:43.490Z,220
2018-04-29T08:42:50.703Z,219
2018-04-29T08:43:57.921Z,217
2018-04-29T08:45:05.131Z,217
2018-04-29T08:46:12.344Z,218
2018-04-29T08:47:19.554Z,215
2018-04-29T08:48:26.765Z,214
2018-04-29T08:49:34.157Z,214
2018-04-29T08:50:41.371Z,213
2018-04-29T08:51:48.590Z,214
2018-04-29T08:52:55.847Z,214
2018-04-29T08:54:03.069Z,213
2018-04-29T08:55:10.279Z,214
2018-04-29T08:56:17.488Z,214
2018-04-29T08:57:24.424Z,213
2018-04-29T08:58:31.353Z,214
2018-04-29T08:59:38.573Z,216
2018-04-29T09:00:45.786Z,215
2018-04-29T09:01:53.029Z,214
2018-04-29T09:03:00.238Z,213
2018-04-29T09:04:07.453Z,213
2018-04-29T09:05:14.671Z,215
2018-04-29T09:06:21.608Z,215
2018-04-29T09:07:28.557Z,215
2018-04-29T09:08:35.776Z,215
2018-04-29T09:09:42.989Z,216
2018-04-29T09:10:50.203Z,218
2018-04-29T09:11:57.421Z,217
2018-04-29T09:13:04.659Z,217
2018-04-29T09:14:11.906Z,215
2018-04-29T09:15:19.137Z,215
2018-04-29T09:16:26.073Z,215
2018-04-29T09:17:33.382Z,216
2018-04-29T09:18:40.727Z,215
2018-04-29T09:19:47.941Z,214
2018-04-29T09:20:55.177Z,211
2018-04-29T09:22:02.118Z,210
2018-04-29T09:23:09.329Z,208
2018-04-29T09:24:16.546Z,206
2018-04-29T09:25:23.762Z,205
2018-04-29T09:26:30.967Z,206
2018-04-29T09:27:38.188Z,205
2018-04-29T09:28:45.126Z,206
2018-04-29T09:29:52.338Z,207
2018-04-29T09:30:59.553Z,205
2018-04-29T09:32:06.770Z,203
2018-04-29T09:33:13.985Z,204
2018-04-29T09:34:21.198Z,212
2018-04-29T09:35:28.411Z,215
2018-04-29T09:36:35.626Z,213
2018-04-29T09:37:42.847Z,211
2018-04-29T09:38:49.790Z,209
2018-04-29T09:39:57.007Z,207
2018-04-29T09:41:04.217Z,209
2018-04-29T09:42:11.501Z,211
2018-04-29T09:43:18.872Z,214
2018-04-29T09:44:26.279Z,211
2018-04-29T09:45:33.500Z,213
2018-04-29T09:46:40.175Z,214
2018-04-29T09:47:47.127Z,215
2018-04-29T09:48:54.383Z,215
2018-04-29T09:50:01.596Z,216
2018-04-29T09:51:08.818Z,216
2018-04-29T09:52:16.029Z,216
2018-04-29T09:53:23.240Z,217
2018-04-29T09:54:30.458Z,213
2018-04-29T09:55:37.682Z,213
2018-04-29T09:56:44.621Z,212
2018-04-29T09:57:51.861Z,210
2018-04-29T09:58:59.084Z,209
2018-04-29T10:00:06.045Z,208
2018-04-29T10:01:13.495Z,205
2018-04-29T10:02:20.781Z,206
2018-04-29T10:03:27.993Z,206
2018-04-29T10:04:35.199Z,204
2018-04-29T10:05:42.415Z,205
2018-04-29T10:06:49.349Z,197
2018-04-29T10:07:56.286Z,196
2018-04-29T10:09:03.499Z,194
2018-04-29T10:10:10.707Z,194
2018-04-29T10:11:17.928Z,193
2018-04-29T10:12:25.149Z,192
2018-04-29T10:13:32.364Z,192
2018-04-29T10:14:39.579Z,194
2018-04-29T10:15:46.800Z,194
2018-04-29T10:16:54.020Z,191
2018-04-29T10:18:01.236Z,193
2018-04-29T10:19:08.446Z,196
2018-04-29T10:20:15.448Z,199
2018-04-29T10:21:22.649Z,198
2018-04-29T10:22:29.861Z,195
2018-04-29T10:23:36.802Z,195
2018-04-29T10:24:44.477Z,192
2018-04-29T10:25:51.929Z,192
2018-04-29T10:26:59.139Z,191
2018-04-29T10:28:06.083Z,196
2018-04-29T10:29:13.301Z,197
2018-04-29T10:30:20.516Z,200
2018-04-29T10:31:27.952Z,199
2018-04-29T10:32:35.166Z,195
2018-04-29T10:33:42.379Z,198
2018-04-29T10:34:49.600Z,192
2018-04-29T10:35:56.820Z,188
2018-04-29T10:37:03.779Z,192
2018-04-29T10:38:11.002Z,191
2018-04-29T10:39:17.940Z,186
2018-04-29T10:40:24.901Z,187
2018-04-29T10:41:31.845Z,189
2018-04-29T10:42:39.065Z,184
2018-04-29T10:43:46.276Z,184
2018-04-29T10:44:53.497Z,188
2018-04-29T10:46:00.708Z,187
2018-04-29T10:47:07.386Z,193
2018-04-29T10:48:14.730Z,201
2018-04-29T10:49:21.954Z,203
2018-04-29T10:50:28.617Z,198
2018-04-29T10:51:35.559Z,196
2018-04-29T10:52:42.497Z,192
2018-04-29T10:53:49.437Z,188
2018-04-29T10:54:56.649Z,185
2018-04-29T10:56:03.863Z,189
2018-04-29T10:57:11.077Z,190
2018-04-29T10:58:18.288Z,189
2018-04-29T10:59:25.502Z,187
2018-04-29T11:00:32.725Z,190
2018-04-29T11:01:39.937Z,192
2018-04-29T11:02:47.152Z,190
2018-04-29T11:03:54.368Z,188
2018-04-29T11:05:01.583Z,195
2018-04-29T11:06:08.792Z,195
2018-04-29T11:07:16.006Z,197
2018-04-29T11:08:22.943Z,198
2018-04-29T11:09:30.168Z,195
2018-04-29T11:10:37.382Z,197
2018-04-29T11:11:44.769Z,193
2018-04-29T11:12:51.977Z,197
2018-04-29T11:13:59.213Z,202
2018-04-29T11:15:06.424Z,193
2018-04-29T11:16:13.633Z,191
2018-04-29T11:17:20.584Z,195
2018-04-29T11:18:27.803Z,198
2018-04-29T11:19:34.740Z,194
2018-04-29T11:20:41.952Z,193
2018-04-29T11:21:48.621Z,191
2018-04-29T11:22:55.578Z,187
2018-04-29T11:24:02.788Z,187
2018-04-29T11:25:09.993Z,188
2018-04-29T11:26:17.212Z,186
2018-04-29T11:27:24.428Z,187
2018-04-29T11:28:31.685Z,186
2018-04-29T11:29:38.974Z,186
2018-04-29T11:30:46.195Z,190
2018-04-29T11:31:53.408Z,196
2018-04-29T11:33:00.626Z,205
2018-04-29T11:34:07.852Z,198
2018-04-29T11:35:15.072Z,190
2018-04-29T11:36:22.292Z,190
2018-04-29T11:37:29.516Z,190
2018-04-29T11:38:36.728Z,189
2018-04-29T11:39:43.945Z,187
2018-04-29T11:40:51.158Z,187
2018-04-29T11:41:58.370Z,187
2018-04-29T11:43:05.048Z,188
2018-04-29T11:44:11.718Z,188
2018-04-29T11:45:18.381Z,189
2018-04-29T11:46:25.595Z,189
2018-04-29T11:47:32.823Z,191
2018-04-29T11:48:39.818Z,192
2018-04-29T11:49:47.028Z,200
2018-04-29T11:50:54.239Z,197
2018-04-29T11:52:01.516Z,193
2018-04-29T11:53:08.189Z,193
2018-04-29T11:54:15.402Z,192
2018-04-29T11:55:22.638Z,190
2018-04-29T11:56:29.848Z,192
2018-04-29T11:57:37.072Z,190
2018-04-29T11:58:44.281Z,190
2018-04-29T11:59:51.496Z,195
2018-04-29T12:00:58.714Z,195
2018-04-29T12:02:05.937Z,194
2018-04-29T12:03:13.152Z,196
2018-04-29T12:04:20.440Z,194
2018-04-29T12:05:27.394Z,197
2018-04-29T12:06:34.618Z,196
2018-04-29T12:07:41.837Z,192
2018-04-29T12:08:49.053Z,192
2018-04-29T12:09:56.469Z,196
2018-04-29T12:11:03.853Z,193
2018-04-29T12:12:11.107Z,196
2018-04-29T12:13:18.420Z,196
2018-04-29T12:14:25.089Z,198
2018-04-29T12:15:32.317Z,199
2018-04-29T12:16:39.281Z,197
2018-04-29T12:17:46.506Z,196
2018-04-29T12:18:53.722Z,194
2018-04-29T12:20:00.947Z,196
2018-04-29T12:21:08.163Z,196
2018-04-29T12:22:15.389Z,194
2018-04-29T12:23:22.625Z,199
2018-04-29T12:24:30.002Z,199
2018-04-29T12:25:37.294Z,198
2018-04-29T12:26:44.512Z,194
2018-04-29T12:27:51.451Z,191
2018-04-29T12:28:58.667Z,198
2018-04-29T12:30:05.884Z,199
2018-04-29T12:31:13.114Z,197
2018-04-29T12:32:20.335Z,197
2018-04-29T12:33:27.550Z,192
2018-04-29T12:34:34.491Z,193
2018-04-29T12:35:41.164Z,193
2018-04-29T12:36:48.112Z,193
2018-04-29T12:37:55.332Z,194
2018-04-29T12:39:02.273Z,194
2018-04-29T12:40:09.496Z,199
2018-04-29T12:41:16.716Z,201
2018-04-29T12:42:23.926Z,198
2018-04-29T12:43:31.148Z,200
2018-04-29T12:44:38.369Z,205
2018-04-29T12:45:45.586Z,211
2018-04-29T12:46:52.800Z,220
2018-04-29T12:48:00.026Z,223
2018-04-29T12:49:07.000Z,219
2018-04-29T12:50:14.209Z,214
2018-04-29T12:51:21.428Z,203
2018-04-29T12:52:28.646Z,206
2018-04-29T12:53:35.872Z,205
2018-04-29T12:54:43.089Z,209
2018-04-29T12:55:50.318Z,202
2018-04-29T12:56:57.534Z,206
2018-04-29T12:58:04.748Z,210
2018-04-29T12:59:12.031Z,215
2018-04-29T13:00:19.385Z,218
2018-04-29T13:01:26.755Z,217
2018-04-29T13:02:33.687Z,216
2018-04-29T13:03:40.904Z,213
2018-04-29T13:04:47.577Z,212
2018-04-29T13:05:54.520Z,208
2018-04-29T13:07:01.735Z,210
2018-04-29T13:08:08.955Z,216
2018-04-29T13:09:16.172Z,209
2018-04-29T13:10:23.400Z,202
2018-04-29T13:11:30.614Z,197
2018-04-29T13:12:37.842Z,193
2018-04-29T13:13:45.058Z,192
2018-04-29T13:14:52.273Z,195
2018-04-29T13:15:59.492Z,195
2018-04-29T13:17:06.709Z,195
2018-04-29T13:18:13.934Z,197
2018-04-29T13:19:21.173Z,197
2018-04-29T13:20:28.589Z,195
2018-04-29T13:21:35.806Z,198
2018-04-29T13:22:43.026Z,197
2018-04-29T13:23:50.240Z,197
2018-04-29T13:24:57.514Z,197
2018-04-29T13:26:04.730Z,196
2018-04-29T13:27:11.681Z,199
2018-04-29T13:28:18.901Z,199
2018-04-29T13:29:26.177Z,200
2018-04-29T13:30:33.396Z,202
2018-04-29T13:31:40.618Z,200
2018-04-29T13:32:47.825Z,196
2018-04-29T13:33:54.773Z,199
2018-04-29T13:35:01.714Z,198
2018-04-29T13:36:08.935Z,198
2018-04-29T13:37:16.154Z,198
2018-04-29T13:38:23.372Z,198
2018-04-29T13:39:30.603Z,199
2018-04-29T13:40:37.825Z,198
2018-04-29T13:41:45.043Z,196
2018-04-29T13:42:52.262Z,195
2018-04-29T13:43:59.480Z,202
2018-04-29T13:45:06.696Z,200
2018-04-29T13:46:13.918Z,201
2018-04-29T13:47:21.140Z,202
2018-04-29T13:48:28.355Z,204
2018-04-29T13:49:35.566Z,212
2018-04-29T13:50:42.787Z,208
2018-04-29T13:51:50.007Z,204
2018-04-29T13:52:57.224Z,202
2018-04-29T13:54:04.441Z,201
2018-04-29T13:55:11.659Z,204
2018-04-29T13:56:18.879Z,204
2018-04-29T13:57:26.101Z,208
2018-04-29T13:58:33.315Z,207
2018-04-29T13:59:40.533Z,213
2018-04-29T14:00:47.758Z,209
2018-04-29T14:01:55.072Z,208
2018-04-29T14:03:02.295Z,207
2018-04-29T14:04:09.510Z,208
2018-04-29T14:05:16.730Z,207
2018-04-29T14:06:23.951Z,208
2018-04-29T14:07:31.169Z,207
2018-04-29T14:08:38.386Z,208
2018-04-29T14:09:45.600Z,208
2018-04-29T14:10:52.823Z,206
2018-04-29T14:12:00.140Z,209
2018-04-29T14:13:07.353Z,210
2018-04-29T14:14:14.573Z,210
2018-04-29T14:15:21.792Z,214
2018-04-29T14:16:29.011Z,211
2018-04-29T14:17:36.235Z,208
2018-04-29T14:18:43.177Z,208
2018-04-29T14:19:50.548Z,208
2018-04-29T14:20:57.760Z,209
2018-04-29T14:22:04.971Z,206
2018-04-29T14:23:11.908Z,211
2018-04-29T14:24:19.128Z,211
2018-04-29T14:25:26.074Z,210
2018-04-29T14:26:33.290Z,208
2018-04-29T14:27:40.510Z,206
2018-04-29T14:28:47.934Z,212
2018-04-29T14:29:55.150Z,212
2018-04-29T14:31:02.370Z,211
2018-04-29T14:32:09.583Z,215
2018-04-29T14:33:16.800Z,215
2018-04-29T14:34:24.020Z,216
2018-04-29T14:35:31.333Z,214
2018-04-29T14:36:38.782Z,213
2018-04-29T14:37:46.044Z,214
2018-04-29T14:38:53.258Z,215
2018-04-29T14:40:00.474Z,211
2018-04-29T14:41:07.482Z,211
2018-04-29T14:42:14.432Z,213
2018-04-29T14:43:21.950Z,215
2018-04-29T14:44:29.280Z,214
2018-04-29T14:45:36.496Z,214
2018-04-29T14:46:43.709Z,212
2018-04-29T14:47:50.928Z,209
2018-04-29T14:48:57.874Z,207
2018-04-29T14:50:05.098Z,212
2018-04-29T14:51:12.315Z,215
2018-04-29T14:52:19.264Z,214
2018-04-29T14:53:26.487Z,214
2018-04-29T14:54:33.703Z,211
2018-04-29T14:55:40.918Z,211
2018-04-29T14:56:48.139Z,214
2018-04-29T14:57:55.110Z,217
2018-04-29T14:59:02.053Z,217
2018-04-29T15:00:09.271Z,218
2018-04-29T15:01:16.497Z,217
2018-04-29T15:02:23.813Z,216
2018-04-29T15:03:31.028Z,215
2018-04-29T15:04:38.322Z,212
2018-04-29T15:05:45.545Z,214
2018-04-29T15:06:52.766Z,215
2018-04-29T15:07:59.988Z,216
2018-04-29T15:09:07.243Z,213
2018-04-29T15:10:14.459Z,215
2018-04-29T15:11:21.685Z,215
2018-04-29T15:12:28.898Z,219
2018-04-29T15:13:36.113Z,215
2018-04-29T15:14:43.331Z,215
2018-04-29T15:15:50.553Z,218
2018-04-29T15:16:57.774Z,217
2018-04-29T15:18:04.715Z,215
2018-04-29T15:19:11.934Z,215
2018-04-29T15:20:18.876Z,215
2018-04-29T15:21:26.094Z,214
2018-04-29T15:22:33.314Z,219
2018-04-29T15:23:40.533Z,221
2018-04-29T15:24:47.752Z,216
2018-04-29T15:25:54.702Z,216